sensor_id;sensor_type;location;lat;lon;timestamp;temperature;humidity
16974;DHT22;8603;46.944;7.412;2024-01-30T00:01:15;-0.20;99.90
16974;DHT22;8603;46.944;7.412;2024-01-30T00:03:41;-0.30;99.90
16974;DHT22;8603;46.944;7.412;2024-01-30T00:06:07;-0.30;99.90
16974;DHT22;8603;46.944;7.412;2024-01-30T00:08:33;-0.30;99.90
16974;DHT22;8603;46.944;7.412;2024-01-30T00:10:59;-0.30;99.90
16974;DHT22;8603;46.944;7.412;2024-01-30T00:13:24;-0.40;99.90
16974;DHT22;8603;46.944;7.412;2024-01-30T00:15:50;-0.30;99.90
16974;DHT22;8603;46.944;7.412;2024-01-30T00:18:16;-0.40;99.90
16974;DHT22;8603;46.944;7.412;2024-01-30T00:20:41;-0.40;99.90
16974;DHT22;8603;46.944;7.412;2024-01-30T00:23:08;-0.50;99.90
16974;DHT22;8603;46.944;7.412;2024-01-30T00:25:34;-0.40;99.90
16974;DHT22;8603;46.944;7.412;2024-01-30T00:28:00;-0.50;99.90
16974;DHT22;8603;46.944;7.412;2024-01-30T00:30:25;-0.50;99.90
16974;DHT22;8603;46.944;7.412;2024-01-30T00:32:51;-0.50;99.90
16974;DHT22;8603;46.944;7.412;2024-01-30T00:35:16;-0.50;99.90
16974;DHT22;8603;46.944;7.412;2024-01-30T00:37:42;-0.50;99.90
16974;DHT22;8603;46.944;7.412;2024-01-30T00:40:08;-0.50;99.90
16974;DHT22;8603;46.944;7.412;2024-01-30T00:42:41;-0.60;99.90
16974;DHT22;8603;46.944;7.412;2024-01-30T00:45:14;-0.60;99.90
16974;DHT22;8603;46.944;7.412;2024-01-30T00:47:41;-0.70;99.90
16974;DHT22;8603;46.944;7.412;2024-01-30T00:50:07;-0.70;99.90
16974;DHT22;8603;46.944;7.412;2024-01-30T00:52:32;-0.80;99.90
16974;DHT22;8603;46.944;7.412;2024-01-30T00:54:59;-0.80;99.90
16974;DHT22;8603;46.944;7.412;2024-01-30T00:57:24;-0.80;99.90
16974;DHT22;8603;46.944;7.412;2024-01-30T00:59:50;-0.80;99.90
16974;DHT22;8603;46.944;7.412;2024-01-30T01:02:16;-0.80;99.90
16974;DHT22;8603;46.944;7.412;2024-01-30T01:04:43;-0.80;99.90
16974;DHT22;8603;46.944;7.412;2024-01-30T01:07:10;-0.90;99.90
16974;DHT22;8603;46.944;7.412;2024-01-30T01:09:35;-0.80;99.90
16974;DHT22;8603;46.944;7.412;2024-01-30T01:12:02;-0.90;99.90
16974;DHT22;8603;46.944;7.412;2024-01-30T01:14:28;-0.90;99.90
16974;DHT22;8603;46.944;7.412;2024-01-30T01:16:53;-0.90;99.90
16974;DHT22;8603;46.944;7.412;2024-01-30T01:19:21;-0.90;99.90
16974;DHT22;8603;46.944;7.412;2024-01-30T01:21:47;-0.90;99.90
16974;DHT22;8603;46.944;7.412;2024-01-30T01:24:13;-0.80;99.90
16974;DHT22;8603;46.944;7.412;2024-01-30T01:26:39;-0.90;99.90
16974;DHT22;8603;46.944;7.412;2024-01-30T01:29:05;-1.00;99.90
16974;DHT22;8603;46.944;7.412;2024-01-30T01:31:36;-0.90;99.90
16974;DHT22;8603;46.944;7.412;2024-01-30T01:34:05;-0.90;99.90
16974;DHT22;8603;46.944;7.412;2024-01-30T01:36:33;-0.80;99.90
16974;DHT22;8603;46.944;7.412;2024-01-30T01:38:59;-0.80;99.90
16974;DHT22;8603;46.944;7.412;2024-01-30T01:41:24;-0.80;99.90
16974;DHT22;8603;46.944;7.412;2024-01-30T01:43:52;-0.90;99.90
16974;DHT22;8603;46.944;7.412;2024-01-30T01:46:23;-0.90;99.90
16974;DHT22;8603;46.944;7.412;2024-01-30T01:48:51;-0.90;99.90
16974;DHT22;8603;46.944;7.412;2024-01-30T01:51:17;-0.90;99.90
16974;DHT22;8603;46.944;7.412;2024-01-30T01:53:43;-1.00;99.90
16974;DHT22;8603;46.944;7.412;2024-01-30T01:56:09;-1.00;99.90
16974;DHT22;8603;46.944;7.412;2024-01-30T01:58:35;-1.00;99.90
16974;DHT22;8603;46.944;7.412;2024-01-30T02:01:02;-1.00;99.90
16974;DHT22;8603;46.944;7.412;2024-01-30T02:03:29;-1.00;99.90
16974;DHT22;8603;46.944;7.412;2024-01-30T02:05:55;-1.00;99.90
16974;DHT22;8603;46.944;7.412;2024-01-30T02:08:22;-0.90;99.90
16974;DHT22;8603;46.944;7.412;2024-01-30T02:10:47;-0.80;99.90
16974;DHT22;8603;46.944;7.412;2024-01-30T02:13:13;-0.80;99.90
16974;DHT22;8603;46.944;7.412;2024-01-30T02:15:39;-0.70;99.90
16974;DHT22;8603;46.944;7.412;2024-01-30T02:18:05;-0.80;99.90
16974;DHT22;8603;46.944;7.412;2024-01-30T02:20:31;-0.80;99.90
16974;DHT22;8603;46.944;7.412;2024-01-30T02:23:01;-0.80;99.90
16974;DHT22;8603;46.944;7.412;2024-01-30T02:25:36;-0.70;99.90
16974;DHT22;8603;46.944;7.412;2024-01-30T02:28:05;-0.80;99.90
16974;DHT22;8603;46.944;7.412;2024-01-30T02:30:31;-0.80;99.90
16974;DHT22;8603;46.944;7.412;2024-01-30T02:33:04;-0.80;99.90
16974;DHT22;8603;46.944;7.412;2024-01-30T02:35:37;-0.80;99.90
16974;DHT22;8603;46.944;7.412;2024-01-30T02:38:05;-0.80;99.90
16974;DHT22;8603;46.944;7.412;2024-01-30T02:40:37;-0.80;99.90
16974;DHT22;8603;46.944;7.412;2024-01-30T02:43:05;-0.90;99.90
16974;DHT22;8603;46.944;7.412;2024-01-30T02:45:37;-0.90;99.90
16974;DHT22;8603;46.944;7.412;2024-01-30T02:48:03;-0.90;99.90
16974;DHT22;8603;46.944;7.412;2024-01-30T02:50:28;-1.00;99.90
16974;DHT22;8603;46.944;7.412;2024-01-30T02:52:54;-1.00;99.90
16974;DHT22;8603;46.944;7.412;2024-01-30T02:55:19;-1.00;99.90
16974;DHT22;8603;46.944;7.412;2024-01-30T02:57:45;-1.00;99.90
16974;DHT22;8603;46.944;7.412;2024-01-30T03:00:11;-1.10;99.90
16974;DHT22;8603;46.944;7.412;2024-01-30T03:02:37;-1.10;99.90
16974;DHT22;8603;46.944;7.412;2024-01-30T03:05:04;-1.10;99.90
16974;DHT22;8603;46.944;7.412;2024-01-30T03:07:30;-1.10;99.90
16974;DHT22;8603;46.944;7.412;2024-01-30T03:09:55;-1.10;99.90
16974;DHT22;8603;46.944;7.412;2024-01-30T03:12:21;-1.00;99.90
16974;DHT22;8603;46.944;7.412;2024-01-30T03:14:48;-1.10;99.90
16974;DHT22;8603;46.944;7.412;2024-01-30T03:17:14;-1.10;99.90
16974;DHT22;8603;46.944;7.412;2024-01-30T03:19:43;-1.10;99.90
16974;DHT22;8603;46.944;7.412;2024-01-30T03:22:09;-1.10;99.90
16974;DHT22;8603;46.944;7.412;2024-01-30T03:24:34;-1.10;99.90
16974;DHT22;8603;46.944;7.412;2024-01-30T03:27:02;-1.10;99.90
16974;DHT22;8603;46.944;7.412;2024-01-30T03:29:28;-1.10;99.90
16974;DHT22;8603;46.944;7.412;2024-01-30T03:31:53;-1.10;99.90
16974;DHT22;8603;46.944;7.412;2024-01-30T03:34:19;-1.20;99.90
16974;DHT22;8603;46.944;7.412;2024-01-30T03:36:45;-1.20;99.90
16974;DHT22;8603;46.944;7.412;2024-01-30T03:39:15;-1.20;99.90
16974;DHT22;8603;46.944;7.412;2024-01-30T03:41:53;-1.20;99.90
16974;DHT22;8603;46.944;7.412;2024-01-30T03:44:19;-1.30;99.90
16974;DHT22;8603;46.944;7.412;2024-01-30T03:46:44;-1.20;99.90
16974;DHT22;8603;46.944;7.412;2024-01-30T03:49:15;-1.20;99.90
16974;DHT22;8603;46.944;7.412;2024-01-30T03:51:41;-1.20;99.90
16974;DHT22;8603;46.944;7.412;2024-01-30T03:54:09;-1.20;99.90
16974;DHT22;8603;46.944;7.412;2024-01-30T03:56:35;-1.20;99.90
16974;DHT22;8603;46.944;7.412;2024-01-30T03:59:00;-1.20;99.90
16974;DHT22;8603;46.944;7.412;2024-01-30T04:01:28;-1.20;99.90
16974;DHT22;8603;46.944;7.412;2024-01-30T04:03:57;-1.20;99.90
16974;DHT22;8603;46.944;7.412;2024-01-30T04:06:25;-1.20;99.90
16974;DHT22;8603;46.944;7.412;2024-01-30T04:08:54;-1.20;99.90
16974;DHT22;8603;46.944;7.412;2024-01-30T04:11:22;-1.20;99.90
16974;DHT22;8603;46.944;7.412;2024-01-30T04:13:50;-1.20;99.90
16974;DHT22;8603;46.944;7.412;2024-01-30T04:16:20;-1.20;99.90
16974;DHT22;8603;46.944;7.412;2024-01-30T04:18:46;-1.20;99.90
16974;DHT22;8603;46.944;7.412;2024-01-30T04:21:18;-1.20;99.90
16974;DHT22;8603;46.944;7.412;2024-01-30T04:23:47;-1.20;99.90
16974;DHT22;8603;46.944;7.412;2024-01-30T04:26:13;-1.20;99.90
16974;DHT22;8603;46.944;7.412;2024-01-30T04:28:43;-1.20;99.90
16974;DHT22;8603;46.944;7.412;2024-01-30T04:31:09;-1.30;99.90
16974;DHT22;8603;46.944;7.412;2024-01-30T04:33:35;-1.40;99.90
16974;DHT22;8603;46.944;7.412;2024-01-30T04:36:07;-1.30;99.90
16974;DHT22;8603;46.944;7.412;2024-01-30T04:38:47;-1.30;99.90
16974;DHT22;8603;46.944;7.412;2024-01-30T04:41:21;-1.30;99.90
16974;DHT22;8603;46.944;7.412;2024-01-30T04:43:47;-1.30;99.90
16974;DHT22;8603;46.944;7.412;2024-01-30T04:46:13;-1.30;99.90
16974;DHT22;8603;46.944;7.412;2024-01-30T04:48:50;-1.20;99.90
16974;DHT22;8603;46.944;7.412;2024-01-30T04:51:16;-1.20;99.90
16974;DHT22;8603;46.944;7.412;2024-01-30T04:53:42;-1.30;99.90
16974;DHT22;8603;46.944;7.412;2024-01-30T04:56:10;-1.20;99.90
16974;DHT22;8603;46.944;7.412;2024-01-30T04:58:36;-1.00;99.90
16974;DHT22;8603;46.944;7.412;2024-01-30T05:01:07;-1.10;99.90
16974;DHT22;8603;46.944;7.412;2024-01-30T05:03:34;-1.10;99.90
16974;DHT22;8603;46.944;7.412;2024-01-30T05:06:03;-0.90;99.90
16974;DHT22;8603;46.944;7.412;2024-01-30T05:08:29;-1.00;99.90
16974;DHT22;8603;46.944;7.412;2024-01-30T05:11:02;-1.00;99.90
16974;DHT22;8603;46.944;7.412;2024-01-30T05:13:42;-1.00;99.90
16974;DHT22;8603;46.944;7.412;2024-01-30T05:16:10;-1.00;99.90
16974;DHT22;8603;46.944;7.412;2024-01-30T05:18:35;-1.00;99.90
16974;DHT22;8603;46.944;7.412;2024-01-30T05:21:02;-1.00;99.90
16974;DHT22;8603;46.944;7.412;2024-01-30T05:23:30;-1.00;99.90
16974;DHT22;8603;46.944;7.412;2024-01-30T05:25:56;-1.10;99.90
16974;DHT22;8603;46.944;7.412;2024-01-30T05:28:22;-0.90;99.90
16974;DHT22;8603;46.944;7.412;2024-01-30T05:30:47;-0.90;99.90
16974;DHT22;8603;46.944;7.412;2024-01-30T05:33:13;-0.80;99.90
16974;DHT22;8603;46.944;7.412;2024-01-30T05:35:38;-0.90;99.90
16974;DHT22;8603;46.944;7.412;2024-01-30T05:38:07;-0.90;99.90
16974;DHT22;8603;46.944;7.412;2024-01-30T05:40:33;-0.90;99.90
16974;DHT22;8603;46.944;7.412;2024-01-30T05:42:58;-0.90;99.90
16974;DHT22;8603;46.944;7.412;2024-01-30T05:45:26;-0.90;99.90
16974;DHT22;8603;46.944;7.412;2024-01-30T05:47:52;-0.90;99.90
16974;DHT22;8603;46.944;7.412;2024-01-30T05:50:22;-0.90;99.90
16974;DHT22;8603;46.944;7.412;2024-01-30T05:52:57;-0.90;99.90
16974;DHT22;8603;46.944;7.412;2024-01-30T05:55:29;-0.90;99.90
16974;DHT22;8603;46.944;7.412;2024-01-30T05:57:54;-0.90;99.90
16974;DHT22;8603;46.944;7.412;2024-01-30T06:00:23;-0.90;99.90
16974;DHT22;8603;46.944;7.412;2024-01-30T06:02:49;-0.90;99.90
16974;DHT22;8603;46.944;7.412;2024-01-30T06:05:20;-0.90;99.90
16974;DHT22;8603;46.944;7.412;2024-01-30T06:07:49;-0.90;99.90
16974;DHT22;8603;46.944;7.412;2024-01-30T06:10:15;-0.90;99.90
16974;DHT22;8603;46.944;7.412;2024-01-30T06:12:43;-0.90;99.90
16974;DHT22;8603;46.944;7.412;2024-01-30T06:15:08;-1.00;99.90
16974;DHT22;8603;46.944;7.412;2024-01-30T06:17:34;-1.00;99.90
16974;DHT22;8603;46.944;7.412;2024-01-30T06:20:00;-1.00;99.90
16974;DHT22;8603;46.944;7.412;2024-01-30T06:22:29;-1.10;99.90
16974;DHT22;8603;46.944;7.412;2024-01-30T06:24:54;-1.00;99.90
16974;DHT22;8603;46.944;7.412;2024-01-30T06:27:20;-1.10;99.90
16974;DHT22;8603;46.944;7.412;2024-01-30T06:29:46;-1.10;99.90
16974;DHT22;8603;46.944;7.412;2024-01-30T06:32:14;-1.10;99.90
16974;DHT22;8603;46.944;7.412;2024-01-30T06:34:41;-1.10;99.90
16974;DHT22;8603;46.944;7.412;2024-01-30T06:37:06;-1.20;99.90
16974;DHT22;8603;46.944;7.412;2024-01-30T06:39:32;-1.20;99.90
16974;DHT22;8603;46.944;7.412;2024-01-30T06:41:57;-1.20;99.90
16974;DHT22;8603;46.944;7.412;2024-01-30T06:44:23;-1.30;99.90
16974;DHT22;8603;46.944;7.412;2024-01-30T06:46:49;-1.20;99.90
16974;DHT22;8603;46.944;7.412;2024-01-30T06:49:14;-1.20;99.90
16974;DHT22;8603;46.944;7.412;2024-01-30T06:51:40;-1.20;99.90
16974;DHT22;8603;46.944;7.412;2024-01-30T06:54:05;-1.20;99.90
16974;DHT22;8603;46.944;7.412;2024-01-30T06:56:33;-1.10;99.90
16974;DHT22;8603;46.944;7.412;2024-01-30T06:58:59;-1.10;99.90
16974;DHT22;8603;46.944;7.412;2024-01-30T07:01:28;-1.10;99.90
16974;DHT22;8603;46.944;7.412;2024-01-30T07:03:55;-1.10;99.90
16974;DHT22;8603;46.944;7.412;2024-01-30T07:06:20;-1.10;99.90
16974;DHT22;8603;46.944;7.412;2024-01-30T07:08:46;-1.10;99.90
16974;DHT22;8603;46.944;7.412;2024-01-30T07:11:18;-1.00;99.90
16974;DHT22;8603;46.944;7.412;2024-01-30T07:13:44;-1.00;99.90
16974;DHT22;8603;46.944;7.412;2024-01-30T07:16:09;-1.00;99.90
16974;DHT22;8603;46.944;7.412;2024-01-30T07:18:35;-0.90;99.90
16974;DHT22;8603;46.944;7.412;2024-01-30T07:21:00;-0.80;99.90
16974;DHT22;8603;46.944;7.412;2024-01-30T07:23:26;-0.70;99.90
16974;DHT22;8603;46.944;7.412;2024-01-30T07:25:52;-0.70;99.90
16974;DHT22;8603;46.944;7.412;2024-01-30T07:28:18;-0.60;99.90
16974;DHT22;8603;46.944;7.412;2024-01-30T07:30:46;-0.50;99.90
16974;DHT22;8603;46.944;7.412;2024-01-30T07:33:13;-0.40;99.90
16974;DHT22;8603;46.944;7.412;2024-01-30T07:35:41;-0.40;99.90
16974;DHT22;8603;46.944;7.412;2024-01-30T07:38:09;-0.30;99.90
16974;DHT22;8603;46.944;7.412;2024-01-30T07:40:35;-0.20;99.90
16974;DHT22;8603;46.944;7.412;2024-01-30T07:43:00;-0.10;99.90
16974;DHT22;8603;46.944;7.412;2024-01-30T07:45:31;-0.10;99.90
16974;DHT22;8603;46.944;7.412;2024-01-30T07:47:58;0.00;99.90
16974;DHT22;8603;46.944;7.412;2024-01-30T07:50:27;0.10;99.90
16974;DHT22;8603;46.944;7.412;2024-01-30T07:52:53;0.30;99.90
16974;DHT22;8603;46.944;7.412;2024-01-30T07:55:25;0.50;99.90
16974;DHT22;8603;46.944;7.412;2024-01-30T07:57:54;0.80;99.90
16974;DHT22;8603;46.944;7.412;2024-01-30T08:00:22;1.30;99.90
16974;DHT22;8603;46.944;7.412;2024-01-30T08:02:48;2.00;99.90
16974;DHT22;8603;46.944;7.412;2024-01-30T08:05:16;2.70;99.90
16974;DHT22;8603;46.944;7.412;2024-01-30T08:07:44;3.40;99.90
16974;DHT22;8603;46.944;7.412;2024-01-30T08:10:14;4.40;99.90
16974;DHT22;8603;46.944;7.412;2024-01-30T08:12:43;5.20;99.90
16974;DHT22;8603;46.944;7.412;2024-01-30T08:15:11;5.90;99.90
16974;DHT22;8603;46.944;7.412;2024-01-30T08:17:38;6.30;99.90
16974;DHT22;8603;46.944;7.412;2024-01-30T08:20:07;6.70;99.90
16974;DHT22;8603;46.944;7.412;2024-01-30T08:22:40;7.10;99.90
16974;DHT22;8603;46.944;7.412;2024-01-30T08:25:06;7.80;99.90
16974;DHT22;8603;46.944;7.412;2024-01-30T08:27:32;8.60;99.90
16974;DHT22;8603;46.944;7.412;2024-01-30T08:29:58;9.10;99.90
16974;DHT22;8603;46.944;7.412;2024-01-30T08:32:23;9.00;99.90
16974;DHT22;8603;46.944;7.412;2024-01-30T08:34:51;8.80;99.90
16974;DHT22;8603;46.944;7.412;2024-01-30T08:37:17;8.40;99.90
16974;DHT22;8603;46.944;7.412;2024-01-30T08:39:43;7.90;99.90
16974;DHT22;8603;46.944;7.412;2024-01-30T08:42:09;7.50;99.90
16974;DHT22;8603;46.944;7.412;2024-01-30T08:44:39;7.10;99.90
16974;DHT22;8603;46.944;7.412;2024-01-30T08:47:04;6.70;99.90
16974;DHT22;8603;46.944;7.412;2024-01-30T08:49:30;6.40;99.90
16974;DHT22;8603;46.944;7.412;2024-01-30T08:51:56;6.20;99.90
16974;DHT22;8603;46.944;7.412;2024-01-30T08:54:23;6.00;99.90
16974;DHT22;8603;46.944;7.412;2024-01-30T08:56:49;5.80;99.90
16974;DHT22;8603;46.944;7.412;2024-01-30T08:59:15;5.70;99.90
16974;DHT22;8603;46.944;7.412;2024-01-30T09:01:40;5.60;99.90
16974;DHT22;8603;46.944;7.412;2024-01-30T09:04:06;5.50;99.90
16974;DHT22;8603;46.944;7.412;2024-01-30T09:06:31;5.50;99.90
16974;DHT22;8603;46.944;7.412;2024-01-30T09:08:57;5.50;99.90
16974;DHT22;8603;46.944;7.412;2024-01-30T09:11:23;5.50;99.90
16974;DHT22;8603;46.944;7.412;2024-01-30T09:13:49;5.60;99.90
16974;DHT22;8603;46.944;7.412;2024-01-30T09:16:14;5.70;99.90
16974;DHT22;8603;46.944;7.412;2024-01-30T09:18:41;5.60;99.90
16974;DHT22;8603;46.944;7.412;2024-01-30T09:21:07;5.70;99.90
16974;DHT22;8603;46.944;7.412;2024-01-30T09:23:33;5.60;99.90
16974;DHT22;8603;46.944;7.412;2024-01-30T09:25:59;5.50;99.90
16974;DHT22;8603;46.944;7.412;2024-01-30T09:28:25;5.70;99.90
16974;DHT22;8603;46.944;7.412;2024-01-30T09:30:50;5.70;99.90
16974;DHT22;8603;46.944;7.412;2024-01-30T09:33:16;5.70;99.90
16974;DHT22;8603;46.944;7.412;2024-01-30T09:35:41;5.70;99.90
16974;DHT22;8603;46.944;7.412;2024-01-30T09:38:07;5.80;99.90
16974;DHT22;8603;46.944;7.412;2024-01-30T09:40:35;5.80;99.90
16974;DHT22;8603;46.944;7.412;2024-01-30T09:43:04;5.90;99.90
16974;DHT22;8603;46.944;7.412;2024-01-30T09:45:30;6.00;99.90
16974;DHT22;8603;46.944;7.412;2024-01-30T09:47:59;6.00;99.90
16974;DHT22;8603;46.944;7.412;2024-01-30T09:50:28;6.00;99.90
16974;DHT22;8603;46.944;7.412;2024-01-30T09:52:55;6.00;99.90
16974;DHT22;8603;46.944;7.412;2024-01-30T09:55:20;5.90;99.90
16974;DHT22;8603;46.944;7.412;2024-01-30T09:57:46;5.80;99.90
16974;DHT22;8603;46.944;7.412;2024-01-30T10:00:16;5.80;99.90
16974;DHT22;8603;46.944;7.412;2024-01-30T10:02:42;5.80;99.90
16974;DHT22;8603;46.944;7.412;2024-01-30T10:05:09;5.70;99.90
16974;DHT22;8603;46.944;7.412;2024-01-30T10:07:34;5.70;99.90
16974;DHT22;8603;46.944;7.412;2024-01-30T10:10:00;5.70;99.90
16974;DHT22;8603;46.944;7.412;2024-01-30T10:12:29;5.60;99.90
16974;DHT22;8603;46.944;7.412;2024-01-30T10:14:56;5.60;99.90
16974;DHT22;8603;46.944;7.412;2024-01-30T10:17:25;5.70;99.90
16974;DHT22;8603;46.944;7.412;2024-01-30T10:19:50;5.80;99.90
16974;DHT22;8603;46.944;7.412;2024-01-30T10:22:17;5.90;99.90
16974;DHT22;8603;46.944;7.412;2024-01-30T10:24:43;6.00;99.90
16974;DHT22;8603;46.944;7.412;2024-01-30T10:27:10;6.20;99.90
16974;DHT22;8603;46.944;7.412;2024-01-30T10:29:37;6.10;99.90
16974;DHT22;8603;46.944;7.412;2024-01-30T10:32:04;6.20;99.90
16974;DHT22;8603;46.944;7.412;2024-01-30T10:34:30;6.30;99.90
16974;DHT22;8603;46.944;7.412;2024-01-30T10:37:07;6.40;99.90
16974;DHT22;8603;46.944;7.412;2024-01-30T10:39:40;6.40;99.90
16974;DHT22;8603;46.944;7.412;2024-01-30T10:42:11;6.60;99.90
16974;DHT22;8603;46.944;7.412;2024-01-30T10:47:30;6.80;99.90
16974;DHT22;8603;46.944;7.412;2024-01-30T10:49:56;6.90;99.90
16974;DHT22;8603;46.944;7.412;2024-01-30T10:52:23;6.90;99.90
16974;DHT22;8603;46.944;7.412;2024-01-30T10:54:54;6.90;99.90
16974;DHT22;8603;46.944;7.412;2024-01-30T10:57:23;7.00;99.90
16974;DHT22;8603;46.944;7.412;2024-01-30T10:59:49;6.90;99.90
16974;DHT22;8603;46.944;7.412;2024-01-30T11:02:16;6.90;99.90
16974;DHT22;8603;46.944;7.412;2024-01-30T11:04:42;6.80;99.90
16974;DHT22;8603;46.944;7.412;2024-01-30T11:07:18;6.70;99.90
16974;DHT22;8603;46.944;7.412;2024-01-30T11:09:53;6.70;99.90
16974;DHT22;8603;46.944;7.412;2024-01-30T11:12:26;6.70;99.90
16974;DHT22;8603;46.944;7.412;2024-01-30T11:15:02;6.80;99.90
16974;DHT22;8603;46.944;7.412;2024-01-30T11:20:15;7.10;99.90
16974;DHT22;8603;46.944;7.412;2024-01-30T11:22:44;7.20;99.90
16974;DHT22;8603;46.944;7.412;2024-01-30T11:25:17;7.30;99.90
16974;DHT22;8603;46.944;7.412;2024-01-30T11:27:43;7.50;99.90
16974;DHT22;8603;46.944;7.412;2024-01-30T11:30:10;7.60;99.90
16974;DHT22;8603;46.944;7.412;2024-01-30T11:32:36;7.80;99.90
16974;DHT22;8603;46.944;7.412;2024-01-30T11:35:05;7.90;99.90
16974;DHT22;8603;46.944;7.412;2024-01-30T11:37:32;8.00;99.90
16974;DHT22;8603;46.944;7.412;2024-01-30T11:39:58;8.10;99.90
16974;DHT22;8603;46.944;7.412;2024-01-30T11:42:24;8.30;99.90
16974;DHT22;8603;46.944;7.412;2024-01-30T11:44:53;8.20;99.90
16974;DHT22;8603;46.944;7.412;2024-01-30T11:47:19;8.30;99.90
16974;DHT22;8603;46.944;7.412;2024-01-30T11:49:45;8.40;99.90
16974;DHT22;8603;46.944;7.412;2024-01-30T11:52:10;8.50;99.90
16974;DHT22;8603;46.944;7.412;2024-01-30T11:54:39;8.60;99.90
16974;DHT22;8603;46.944;7.412;2024-01-30T11:57:05;8.60;99.90
16974;DHT22;8603;46.944;7.412;2024-01-30T11:59:30;8.70;99.90
16974;DHT22;8603;46.944;7.412;2024-01-30T12:01:56;8.70;99.90
16974;DHT22;8603;46.944;7.412;2024-01-30T12:04:22;8.70;99.90
16974;DHT22;8603;46.944;7.412;2024-01-30T12:06:51;8.70;99.90
16974;DHT22;8603;46.944;7.412;2024-01-30T12:09:17;8.70;99.90
16974;DHT22;8603;46.944;7.412;2024-01-30T12:11:46;8.90;99.90
16974;DHT22;8603;46.944;7.412;2024-01-30T12:14:12;9.00;99.90
16974;DHT22;8603;46.944;7.412;2024-01-30T12:16:38;9.10;99.90
16974;DHT22;8603;46.944;7.412;2024-01-30T12:19:04;9.20;99.90
16974;DHT22;8603;46.944;7.412;2024-01-30T12:21:30;9.30;99.90
16974;DHT22;8603;46.944;7.412;2024-01-30T12:23:59;9.30;99.90
16974;DHT22;8603;46.944;7.412;2024-01-30T12:26:25;9.40;99.90
16974;DHT22;8603;46.944;7.412;2024-01-30T12:28:54;9.60;99.90
16974;DHT22;8603;46.944;7.412;2024-01-30T12:31:28;9.60;99.90
16974;DHT22;8603;46.944;7.412;2024-01-30T12:33:54;9.80;99.90
16974;DHT22;8603;46.944;7.412;2024-01-30T12:36:21;9.90;99.90
16974;DHT22;8603;46.944;7.412;2024-01-30T12:38:47;10.00;99.90
16974;DHT22;8603;46.944;7.412;2024-01-30T12:41:13;10.10;99.90
16974;DHT22;8603;46.944;7.412;2024-01-30T12:43:39;10.20;99.90
16974;DHT22;8603;46.944;7.412;2024-01-30T12:46:05;10.40;99.90
16974;DHT22;8603;46.944;7.412;2024-01-30T12:48:31;10.40;99.90
16974;DHT22;8603;46.944;7.412;2024-01-30T12:50:57;10.50;99.90
16974;DHT22;8603;46.944;7.412;2024-01-30T12:53:23;10.60;99.90
16974;DHT22;8603;46.944;7.412;2024-01-30T12:55:48;10.60;99.90
16974;DHT22;8603;46.944;7.412;2024-01-30T12:58:15;10.60;99.90
16974;DHT22;8603;46.944;7.412;2024-01-30T13:00:41;10.60;99.90
16974;DHT22;8603;46.944;7.412;2024-01-30T13:03:09;10.70;99.90
16974;DHT22;8603;46.944;7.412;2024-01-30T13:05:35;10.80;99.90
16974;DHT22;8603;46.944;7.412;2024-01-30T13:08:01;10.90;99.90
16974;DHT22;8603;46.944;7.412;2024-01-30T13:10:26;11.00;99.90
16974;DHT22;8603;46.944;7.412;2024-01-30T13:12:53;11.10;99.90
16974;DHT22;8603;46.944;7.412;2024-01-30T13:15:18;11.10;99.90
16974;DHT22;8603;46.944;7.412;2024-01-30T13:17:44;11.20;99.90
16974;DHT22;8603;46.944;7.412;2024-01-30T13:20:13;11.20;99.90
16974;DHT22;8603;46.944;7.412;2024-01-30T13:22:43;11.20;99.90
16974;DHT22;8603;46.944;7.412;2024-01-30T13:25:08;11.30;99.90
16974;DHT22;8603;46.944;7.412;2024-01-30T13:27:34;11.40;99.90
16974;DHT22;8603;46.944;7.412;2024-01-30T13:30:00;11.40;99.90
16974;DHT22;8603;46.944;7.412;2024-01-30T13:32:25;11.50;99.90
16974;DHT22;8603;46.944;7.412;2024-01-30T13:34:51;11.50;99.90
16974;DHT22;8603;46.944;7.412;2024-01-30T13:37:17;11.70;99.90
16974;DHT22;8603;46.944;7.412;2024-01-30T13:39:42;11.80;99.90
16974;DHT22;8603;46.944;7.412;2024-01-30T13:42:08;11.90;99.90
16974;DHT22;8603;46.944;7.412;2024-01-30T13:44:35;12.00;99.90
16974;DHT22;8603;46.944;7.412;2024-01-30T13:47:01;12.10;99.90
16974;DHT22;8603;46.944;7.412;2024-01-30T13:49:26;12.20;99.90
16974;DHT22;8603;46.944;7.412;2024-01-30T13:51:52;12.20;99.90
16974;DHT22;8603;46.944;7.412;2024-01-30T13:54:18;12.40;99.90
16974;DHT22;8603;46.944;7.412;2024-01-30T13:56:43;12.30;99.90
16974;DHT22;8603;46.944;7.412;2024-01-30T13:59:09;12.30;99.90
16974;DHT22;8603;46.944;7.412;2024-01-30T14:01:34;12.20;99.90
16974;DHT22;8603;46.944;7.412;2024-01-30T14:04:00;12.20;99.90
16974;DHT22;8603;46.944;7.412;2024-01-30T14:06:25;12.10;99.90
16974;DHT22;8603;46.944;7.412;2024-01-30T14:08:51;12.00;99.90
16974;DHT22;8603;46.944;7.412;2024-01-30T14:11:17;12.10;99.90
16974;DHT22;8603;46.944;7.412;2024-01-30T14:13:42;12.10;99.90
16974;DHT22;8603;46.944;7.412;2024-01-30T14:16:08;12.10;99.90
16974;DHT22;8603;46.944;7.412;2024-01-30T14:18:33;12.10;99.90
16974;DHT22;8603;46.944;7.412;2024-01-30T14:20:59;12.00;99.90
16974;DHT22;8603;46.944;7.412;2024-01-30T14:23:25;12.00;99.90
16974;DHT22;8603;46.944;7.412;2024-01-30T14:25:50;11.90;99.90
16974;DHT22;8603;46.944;7.412;2024-01-30T14:28:17;11.90;99.90
16974;DHT22;8603;46.944;7.412;2024-01-30T14:30:42;11.90;99.90
16974;DHT22;8603;46.944;7.412;2024-01-30T14:33:08;11.90;99.90
16974;DHT22;8603;46.944;7.412;2024-01-30T14:35:33;11.90;99.90
16974;DHT22;8603;46.944;7.412;2024-01-30T14:37:59;11.70;99.90
16974;DHT22;8603;46.944;7.412;2024-01-30T14:40:25;11.80;99.90
16974;DHT22;8603;46.944;7.412;2024-01-30T14:42:50;11.80;99.90
16974;DHT22;8603;46.944;7.412;2024-01-30T14:45:19;11.80;99.90
16974;DHT22;8603;46.944;7.412;2024-01-30T14:47:45;11.70;99.90
16974;DHT22;8603;46.944;7.412;2024-01-30T14:50:11;11.70;99.90
16974;DHT22;8603;46.944;7.412;2024-01-30T14:52:36;11.60;99.90
16974;DHT22;8603;46.944;7.412;2024-01-30T14:55:05;11.50;99.90
16974;DHT22;8603;46.944;7.412;2024-01-30T14:57:30;11.30;99.90
16974;DHT22;8603;46.944;7.412;2024-01-30T14:59:56;11.20;99.90
16974;DHT22;8603;46.944;7.412;2024-01-30T15:02:22;11.00;99.90
16974;DHT22;8603;46.944;7.412;2024-01-30T15:04:48;10.90;99.90
16974;DHT22;8603;46.944;7.412;2024-01-30T15:07:13;10.80;99.90
16974;DHT22;8603;46.944;7.412;2024-01-30T15:09:39;10.70;99.90
16974;DHT22;8603;46.944;7.412;2024-01-30T15:12:04;10.60;99.90
16974;DHT22;8603;46.944;7.412;2024-01-30T15:14:30;10.50;99.90
16974;DHT22;8603;46.944;7.412;2024-01-30T15:16:56;10.40;99.90
16974;DHT22;8603;46.944;7.412;2024-01-30T15:19:21;10.30;99.90
16974;DHT22;8603;46.944;7.412;2024-01-30T15:21:47;10.20;99.90
16974;DHT22;8603;46.944;7.412;2024-01-30T15:24:12;10.20;99.90
16974;DHT22;8603;46.944;7.412;2024-01-30T15:26:41;10.10;99.90
16974;DHT22;8603;46.944;7.412;2024-01-30T15:29:06;10.20;99.90
16974;DHT22;8603;46.944;7.412;2024-01-30T15:31:32;10.10;99.90
16974;DHT22;8603;46.944;7.412;2024-01-30T15:33:57;10.00;99.90
16974;DHT22;8603;46.944;7.412;2024-01-30T15:36:23;10.00;99.90
16974;DHT22;8603;46.944;7.412;2024-01-30T15:38:49;9.90;99.90
16974;DHT22;8603;46.944;7.412;2024-01-30T15:41:14;9.80;99.90
16974;DHT22;8603;46.944;7.412;2024-01-30T15:43:40;9.70;99.90
16974;DHT22;8603;46.944;7.412;2024-01-30T15:46:06;9.70;99.90
16974;DHT22;8603;46.944;7.412;2024-01-30T15:48:31;9.70;99.90
16974;DHT22;8603;46.944;7.412;2024-01-30T15:50:57;9.60;99.90
16974;DHT22;8603;46.944;7.412;2024-01-30T15:53:22;9.60;99.90